createdAt,value
2022-08-26T00:01:55.658Z,14.90
2022-08-26T00:04:25.211Z,15.27
2022-08-26T00:06:53.753Z,14.00
2022-08-26T00:09:21.423Z,15.45
2022-08-26T00:11:48.669Z,14.73
2022-08-26T00:14:16.421Z,15.52
2022-08-26T00:16:47.479Z,15.20
2022-08-26T00:19:17.920Z,14.93
2022-08-26T00:21:46.289Z,15.25
2022-08-26T00:24:16.092Z,14.98
2022-08-26T00:26:43.790Z,14.38
2022-08-26T00:29:12.348Z,15.95
2022-08-26T00:31:40.722Z,15.73
2022-08-26T00:34:09.588Z,16.92
2022-08-26T00:36:40.729Z,17.25
2022-08-26T00:39:09.474Z,18.48
2022-08-26T00:41:39.881Z,18.33
2022-08-26T00:44:08.184Z,19.60
2022-08-26T00:46:39.871Z,20.48
2022-08-26T00:49:20.445Z,18.85
2022-08-26T00:51:51.404Z,17.95
2022-08-26T00:54:20.540Z,18.63
2022-08-26T00:57:08.752Z,18.63
2022-08-26T00:59:46.528Z,19.30
2022-08-26T01:02:20.959Z,17.92
2022-08-26T01:04:55.631Z,19.58
2022-08-26T01:07:25.091Z,18.98
2022-08-26T01:09:52.255Z,17.40
2022-08-26T01:12:22.119Z,19.27
2022-08-26T01:14:49.578Z,18.70
2022-08-26T01:17:17.306Z,18.73
2022-08-26T01:20:02.923Z,18.30
2022-08-26T01:22:52.257Z,18.05
2022-08-26T01:25:20.581Z,18.35
2022-08-26T01:27:49.700Z,18.17
2022-08-26T01:30:17.856Z,18.17
2022-08-26T01:32:45.405Z,17.50
2022-08-26T01:35:12.365Z,18.35
2022-08-26T01:37:40.815Z,17.13
2022-08-26T01:40:10.478Z,18.63
2022-08-26T01:42:37.613Z,18.38
2022-08-26T01:45:11.059Z,18.02
2022-08-26T01:47:38.909Z,18.45
2022-08-26T01:50:11.625Z,21.77
2022-08-26T01:52:41.938Z,21.52
2022-08-26T01:55:10.588Z,19.92
2022-08-26T01:57:37.718Z,19.27
2022-08-26T02:00:08.980Z,22.02
2022-08-26T02:02:40.850Z,21.77
2022-08-26T02:05:14.936Z,20.92
2022-08-26T02:07:42.454Z,23.98
2022-08-26T02:10:10.965Z,21.48
2022-08-26T02:12:39.303Z,21.75
2022-08-26T02:15:09.784Z,21.88
2022-08-26T02:17:42.896Z,23.40
2022-08-26T02:20:17.658Z,23.75
2022-08-26T02:22:48.498Z,22.30
2022-08-26T02:25:20.796Z,22.45
2022-08-26T02:27:48.416Z,24.15
2022-08-26T02:30:19.076Z,23.90
2022-08-26T02:32:46.499Z,24.00
2022-08-26T02:35:20.361Z,23.08
2022-08-26T02:37:49.505Z,22.42
2022-08-26T02:40:20.790Z,22.58
2022-08-26T02:42:49.063Z,22.02
2022-08-26T02:45:16.772Z,23.08
2022-08-26T02:47:51.171Z,22.92
2022-08-26T02:50:18.139Z,23.65
2022-08-26T02:52:44.990Z,22.20
2022-08-26T02:55:11.936Z,23.67
2022-08-26T02:57:38.933Z,23.50
2022-08-26T03:00:09.132Z,23.52
2022-08-26T03:02:35.959Z,25.75
2022-08-26T03:05:02.920Z,25.35
2022-08-26T03:07:31.030Z,23.88
2022-08-26T03:09:58.533Z,25.23
2022-08-26T03:12:26.087Z,25.55
2022-08-26T03:14:53.699Z,25.10
2022-08-26T03:17:21.100Z,24.33
2022-08-26T03:19:51.722Z,26.23
2022-08-26T03:24:48.255Z,26.75
2022-08-26T03:27:16.043Z,26.58
2022-08-26T03:30:03.795Z,26.05
2022-08-26T03:32:34.712Z,26.25
2022-08-26T03:35:05.498Z,26.77
2022-08-26T03:37:33.603Z,27.88
2022-08-26T03:40:01.059Z,27.85
2022-08-26T03:42:28.498Z,27.13
2022-08-26T03:44:55.375Z,28.35
2022-08-26T03:47:22.313Z,28.13
2022-08-26T03:49:49.117Z,28.90
2022-08-26T03:52:19.408Z,29.02
2022-08-26T03:54:46.755Z,29.92
2022-08-26T03:57:14.176Z,30.52
2022-08-26T03:59:43.778Z,31.02
2022-08-26T04:02:11.639Z,28.85
2022-08-26T04:04:39.129Z,29.70
2022-08-26T04:07:06.179Z,28.42
2022-08-26T04:12:37.636Z,29.00
2022-08-26T04:15:10.421Z,28.17
2022-08-26T04:17:37.602Z,29.25
2022-08-26T04:20:06.056Z,28.38
2022-08-26T04:22:34.151Z,29.60
2022-08-26T04:25:01.718Z,31.85
2022-08-26T04:27:28.816Z,31.77
2022-08-26T04:29:55.767Z,31.83
2022-08-26T04:32:22.753Z,32.70
2022-08-26T04:34:49.952Z,32.90
2022-08-26T04:37:33.933Z,31.73
2022-08-26T04:40:00.957Z,32.83
2022-08-26T04:42:29.323Z,34.33
2022-08-26T04:44:56.322Z,33.47
2022-08-26T04:47:23.198Z,34.05
2022-08-26T04:49:50.239Z,33.60
2022-08-26T04:52:17.643Z,32.65
2022-08-26T04:54:44.816Z,34.83
2022-08-26T04:57:12.737Z,32.88
2022-08-26T04:59:40.397Z,33.83
2022-08-26T05:02:08.059Z,33.17
2022-08-26T05:04:36.372Z,33.70
2022-08-26T05:07:03.860Z,32.38
2022-08-26T05:09:31.252Z,32.58
2022-08-26T05:11:59.354Z,33.90
2022-08-26T05:14:26.792Z,33.35
2022-08-26T05:16:54.097Z,32.78
2022-08-26T05:19:21.191Z,30.38
2022-08-26T05:21:54.210Z,29.00
2022-08-26T05:24:21.980Z,25.80
2022-08-26T05:26:49.591Z,17.98
2022-08-26T05:29:17.000Z,18.58
2022-08-26T05:31:43.966Z,15.77
2022-08-26T05:34:10.983Z,13.07
2022-08-26T05:36:38.875Z,11.52
2022-08-26T05:39:07.189Z,11.27
2022-08-26T05:41:38.292Z,10.65
2022-08-26T05:44:10.726Z,11.35
2022-08-26T05:46:38.533Z,10.35
2022-08-26T05:49:12.740Z,11.88
2022-08-26T05:51:45.220Z,11.18
2022-08-26T05:54:13.128Z,11.53
2022-08-26T05:56:40.364Z,11.65
2022-08-26T05:59:14.239Z,10.50
2022-08-26T06:01:43.612Z,10.88
2022-08-26T06:04:11.586Z,10.50
2022-08-26T06:06:41.397Z,9.32
2022-08-26T06:09:11.132Z,8.45
2022-08-26T06:11:39.295Z,8.80
2022-08-26T06:14:07.864Z,8.15
2022-08-26T06:16:38.678Z,8.15
2022-08-26T06:19:10.655Z,7.35
2022-08-26T06:21:40.192Z,7.50
2022-08-26T06:24:30.725Z,7.65
2022-08-26T06:27:03.406Z,8.05
2022-08-26T06:29:33.562Z,7.72
2022-08-26T06:32:01.353Z,8.55
2022-08-26T06:34:30.537Z,8.35
2022-08-26T06:37:01.852Z,8.40
2022-08-26T06:39:30.634Z,8.35
2022-08-26T06:42:01.136Z,7.90
2022-08-26T06:44:30.321Z,9.07
2022-08-26T06:46:57.443Z,6.90
2022-08-26T06:49:27.240Z,7.57
2022-08-26T06:51:58.634Z,7.90
2022-08-26T06:54:27.599Z,8.13
2022-08-26T06:56:56.981Z,8.30
2022-08-26T06:59:24.959Z,7.63
2022-08-26T07:01:52.435Z,7.70
2022-08-26T07:04:23.218Z,6.50
2022-08-26T07:06:52.679Z,7.25
2022-08-26T07:09:26.357Z,7.15
2022-08-26T07:11:56.216Z,7.88
2022-08-26T07:14:24.975Z,7.50
2022-08-26T07:16:53.651Z,6.32
2022-08-26T07:19:29.966Z,6.40
2022-08-26T07:22:03.837Z,6.57
2022-08-26T07:24:36.582Z,7.50
2022-08-26T07:27:08.668Z,7.07
2022-08-26T07:29:37.249Z,7.40
2022-08-26T07:32:04.762Z,7.43
2022-08-26T07:34:33.162Z,7.88
2022-08-26T07:37:01.021Z,8.85
2022-08-26T07:39:28.304Z,8.68
2022-08-26T07:42:01.021Z,8.82
2022-08-26T07:44:28.283Z,8.50
2022-08-26T07:46:55.254Z,8.20
2022-08-26T07:49:24.495Z,7.72
2022-08-26T07:51:54.439Z,7.88
2022-08-26T07:54:26.798Z,8.48
2022-08-26T07:56:54.462Z,7.55
2022-08-26T07:59:23.334Z,8.45
2022-08-26T08:01:50.825Z,7.25
2022-08-26T08:04:25.569Z,5.85
2022-08-26T08:06:53.900Z,6.93
2022-08-26T08:09:22.397Z,7.18
2022-08-26T08:11:50.131Z,6.57
2022-08-26T08:14:22.163Z,6.55
2022-08-26T08:16:53.598Z,6.60
2022-08-26T08:19:23.230Z,6.13
2022-08-26T08:21:51.036Z,5.95
2022-08-26T08:24:18.502Z,6.18
2022-08-26T08:26:46.057Z,6.25
2022-08-26T08:29:13.089Z,5.90
2022-08-26T08:31:58.357Z,5.80
2022-08-26T08:34:29.418Z,6.50
2022-08-26T08:36:57.197Z,6.75
2022-08-26T08:39:25.428Z,6.45
2022-08-26T08:42:19.615Z,8.30
2022-08-26T08:44:52.781Z,7.28
2022-08-26T08:47:34.181Z,7.78
2022-08-26T08:50:24.953Z,7.55
2022-08-26T08:52:58.284Z,6.80
2022-08-26T08:55:35.248Z,8.10
2022-08-26T08:58:08.255Z,7.85
2022-08-26T09:01:03.108Z,6.75
2022-08-26T09:03:34.966Z,7.30
2022-08-26T09:06:03.295Z,6.97
2022-08-26T09:08:35.167Z,7.07
2022-08-26T09:13:31.559Z,7.38
2022-08-26T09:16:03.448Z,8.80
2022-08-26T09:18:52.731Z,8.90
2022-08-26T09:21:23.307Z,8.35
2022-08-26T09:23:51.543Z,8.00
2022-08-26T09:26:25.946Z,6.72
2022-08-26T09:29:00.039Z,8.45
2022-08-26T09:31:34.127Z,8.33
2022-08-26T09:34:28.913Z,9.27
2022-08-26T09:37:00.134Z,9.40
2022-08-26T09:39:37.889Z,8.85
2022-08-26T09:42:06.711Z,9.27
2022-08-26T09:44:35.647Z,9.07
2022-08-26T09:47:06.958Z,9.52
2022-08-26T09:49:39.520Z,9.77
2022-08-26T09:52:07.850Z,9.15
2022-08-26T09:54:35.800Z,9.75
2022-08-26T09:57:21.093Z,9.48
2022-08-26T09:59:49.524Z,9.68
2022-08-26T10:02:31.700Z,8.48
2022-08-26T10:05:09.617Z,9.13
2022-08-26T10:07:49.166Z,8.63
2022-08-26T10:10:38.059Z,8.98
2022-08-26T10:13:11.230Z,9.43
2022-08-26T10:15:53.167Z,8.88
2022-08-26T10:18:24.711Z,9.20
2022-08-26T10:21:02.684Z,8.15
2022-08-26T10:23:35.338Z,9.93
2022-08-26T10:26:21.351Z,11.10
2022-08-26T10:29:20.341Z,9.60
2022-08-26T10:31:55.401Z,9.20
2022-08-26T10:34:29.885Z,9.18
2022-08-26T10:37:15.828Z,7.63
2022-08-26T10:40:04.620Z,7.57
2022-08-26T10:42:42.592Z,7.45
2022-08-26T10:45:15.115Z,6.97
2022-08-26T10:47:51.883Z,6.75
2022-08-26T10:50:19.485Z,6.90
2022-08-26T10:53:24.920Z,8.23
2022-08-26T10:56:18.842Z,7.05
2022-08-26T10:58:55.056Z,5.60
2022-08-26T11:01:42.367Z,8.02
2022-08-26T11:04:37.177Z,5.55
2022-08-26T11:07:32.095Z,5.75
2022-08-26T11:10:06.042Z,5.57
2022-08-26T11:12:37.221Z,5.90
2022-08-26T11:15:30.741Z,4.90
2022-08-26T11:20:30.093Z,4.30
2022-08-26T11:23:22.728Z,4.28
2022-08-26T11:25:57.516Z,4.72
2022-08-26T11:28:35.545Z,4.00
2022-08-26T11:31:04.486Z,3.83
2022-08-26T11:33:44.008Z,3.10
2022-08-26T11:36:12.602Z,2.60
2022-08-26T11:38:43.512Z,3.20
2022-08-26T11:41:14.295Z,3.20
2022-08-26T11:43:42.613Z,3.25
2022-08-26T11:46:11.976Z,3.38
2022-08-26T11:48:41.943Z,2.75
2022-08-26T11:51:22.894Z,2.70
2022-08-26T11:53:50.697Z,3.20
2022-08-26T11:56:31.734Z,3.38
2022-08-26T11:59:01.457Z,3.67
2022-08-26T12:01:31.560Z,3.65
2022-08-26T12:03:59.941Z,3.45
2022-08-26T12:06:42.010Z,3.33
2022-08-26T12:09:25.946Z,3.88
2022-08-26T12:11:57.984Z,3.40
2022-08-26T12:14:27.693Z,3.90
2022-08-26T12:16:54.870Z,3.20
2022-08-26T12:19:27.334Z,3.53
2022-08-26T12:24:25.340Z,3.65
2022-08-26T12:27:14.379Z,3.80
2022-08-26T12:29:41.587Z,3.40
2022-08-26T12:32:17.650Z,3.50
2022-08-26T12:34:45.862Z,4.03
2022-08-26T12:37:14.049Z,4.03
2022-08-26T12:39:44.471Z,3.92
2022-08-26T12:42:17.239Z,3.65
2022-08-26T12:47:43.415Z,3.35
2022-08-26T12:50:24.410Z,3.10
2022-08-26T12:53:11.808Z,3.33
2022-08-26T12:55:50.105Z,3.88
2022-08-26T12:58:27.282Z,3.83
2022-08-26T13:00:58.179Z,3.80
2022-08-26T13:03:37.490Z,3.83
2022-08-26T13:06:15.495Z,4.03
2022-08-26T13:08:48.397Z,3.90
2022-08-26T13:11:24.804Z,3.67
2022-08-26T13:14:00.294Z,3.63
2022-08-26T13:16:29.383Z,3.25
2022-08-26T13:19:01.508Z,3.25
2022-08-26T13:21:37.467Z,2.95
2022-08-26T13:24:08.388Z,3.25
2022-08-26T13:26:35.688Z,3.13
2022-08-26T13:29:09.570Z,3.08
2022-08-26T13:31:39.646Z,3.25
2022-08-26T13:34:07.962Z,3.13
2022-08-26T13:36:34.860Z,2.60
2022-08-26T13:39:01.821Z,3.20
2022-08-26T13:41:29.973Z,3.40
2022-08-26T13:43:58.211Z,3.17
2022-08-26T13:46:27.309Z,2.72
2022-08-26T13:48:54.645Z,3.97
2022-08-26T13:51:22.989Z,3.10
2022-08-26T13:53:50.919Z,3.25
2022-08-26T13:56:18.852Z,2.55
2022-08-26T13:58:46.684Z,2.78
2022-08-26T14:01:15.823Z,3.35
2022-08-26T14:03:43.732Z,3.00
2022-08-26T14:06:10.694Z,3.17
2022-08-26T14:08:38.926Z,3.15
2022-08-26T14:11:06.720Z,2.60
2022-08-26T14:13:33.977Z,3.08
2022-08-26T14:16:02.381Z,2.70
2022-08-26T14:18:33.242Z,2.53
2022-08-26T14:21:01.048Z,3.25
2022-08-26T14:23:28.263Z,2.88
2022-08-26T14:25:55.310Z,3.15
2022-08-26T14:28:22.295Z,3.17
2022-08-26T14:30:55.025Z,3.13
2022-08-26T14:33:25.001Z,3.95
2022-08-26T14:35:52.409Z,3.33
2022-08-26T14:38:19.352Z,3.30
2022-08-26T14:40:46.221Z,3.17
2022-08-26T14:43:16.432Z,3.75
2022-08-26T14:45:44.248Z,3.38
2022-08-26T14:48:11.340Z,3.10
2022-08-26T14:50:38.523Z,3.17
2022-08-26T14:53:23.994Z,3.83
2022-08-26T14:55:51.838Z,3.72
2022-08-26T14:58:18.838Z,3.65
2022-08-26T15:00:46.383Z,3.97
2022-08-26T15:05:48.063Z,3.20
2022-08-26T15:08:16.994Z,3.03
2022-08-26T15:10:44.644Z,3.17
2022-08-26T15:13:11.770Z,3.40
2022-08-26T15:15:38.796Z,3.33
2022-08-26T15:18:06.037Z,3.33
2022-08-26T15:23:06.945Z,2.97
2022-08-26T15:25:33.920Z,2.80
2022-08-26T15:28:00.974Z,3.15
2022-08-26T15:30:28.195Z,3.65
2022-08-26T15:32:54.974Z,3.15
2022-08-26T15:35:21.714Z,2.92
2022-08-26T15:37:48.757Z,3.50
2022-08-26T15:40:16.331Z,3.15
2022-08-26T15:42:43.159Z,3.85
2022-08-26T15:45:11.866Z,3.33
2022-08-26T15:48:00.780Z,3.38
2022-08-26T15:50:29.020Z,2.63
2022-08-26T15:52:56.532Z,2.20
2022-08-26T15:55:23.614Z,4.57
2022-08-26T15:57:50.594Z,3.05
2022-08-26T16:00:18.241Z,3.35
2022-08-26T16:02:45.078Z,3.58
2022-08-26T16:05:13.159Z,3.90
2022-08-26T16:07:40.463Z,2.70
2022-08-26T16:10:07.831Z,3.15
2022-08-26T16:12:34.849Z,2.50
2022-08-26T16:15:02.040Z,2.60
2022-08-26T16:17:29.256Z,2.60
2022-08-26T16:19:56.338Z,2.58
2022-08-26T16:22:23.164Z,2.72
2022-08-26T16:24:50.582Z,2.80
2022-08-26T16:27:17.363Z,2.40
2022-08-26T16:29:44.189Z,2.42
2022-08-26T16:32:11.002Z,2.00
2022-08-26T16:34:38.267Z,2.35
2022-08-26T16:37:22.511Z,2.40
2022-08-26T16:39:49.505Z,2.60
2022-08-26T16:42:16.906Z,2.63
2022-08-26T16:44:44.531Z,2.80
2022-08-26T16:47:15.686Z,2.72
2022-08-26T16:49:42.567Z,2.47
2022-08-26T16:52:10.537Z,2.63
2022-08-26T16:54:39.729Z,2.90
2022-08-26T16:57:08.708Z,3.15
2022-08-26T16:59:35.983Z,2.33
2022-08-26T17:02:02.951Z,3.08
2022-08-26T17:04:29.815Z,3.63
2022-08-26T17:06:56.675Z,3.60
2022-08-26T17:09:23.993Z,4.70
2022-08-26T17:11:51.933Z,4.35
2022-08-26T17:14:19.635Z,3.95
2022-08-26T17:16:51.080Z,3.95
2022-08-26T17:19:19.885Z,3.60
2022-08-26T17:21:47.555Z,3.40
2022-08-26T17:24:14.780Z,3.83
2022-08-26T17:26:44.355Z,3.63
2022-08-26T17:29:15.284Z,3.60
2022-08-26T17:31:43.510Z,3.40
2022-08-26T17:34:10.577Z,3.80
2022-08-26T17:36:37.440Z,3.92
2022-08-26T17:39:04.496Z,3.28
2022-08-26T17:41:31.690Z,2.90
2022-08-26T17:43:58.549Z,3.63
2022-08-26T17:46:25.886Z,3.20
2022-08-26T17:48:52.886Z,2.97
2022-08-26T17:51:20.493Z,2.95
2022-08-26T17:53:47.908Z,2.65
2022-08-26T17:56:16.490Z,3.08
2022-08-26T17:58:50.990Z,3.00
2022-08-26T18:01:20.043Z,3.42
2022-08-26T18:03:47.200Z,3.60
2022-08-26T18:06:15.327Z,3.03
2022-08-26T18:08:42.771Z,3.13
2022-08-26T18:11:11.962Z,3.67
2022-08-26T18:13:46.945Z,3.55
2022-08-26T18:16:15.457Z,3.20
2022-08-26T18:18:43.228Z,3.95
2022-08-26T18:21:19.091Z,3.42
2022-08-26T18:23:46.971Z,3.47
2022-08-26T18:26:40.742Z,3.67
2022-08-26T18:29:08.035Z,4.05
2022-08-26T18:31:34.968Z,4.82
2022-08-26T18:34:02.559Z,4.15
2022-08-26T18:36:32.896Z,4.10
2022-08-26T18:39:00.229Z,4.63
2022-08-26T18:41:29.805Z,4.05
2022-08-26T18:43:57.139Z,5.28
2022-08-26T18:46:25.767Z,5.00
2022-08-26T18:48:54.564Z,5.50
2022-08-26T18:51:29.885Z,5.30
2022-08-26T18:53:57.312Z,6.30
2022-08-26T18:56:24.232Z,5.18
2022-08-26T18:58:51.354Z,5.80
2022-08-26T19:01:20.913Z,5.90
2022-08-26T19:03:51.287Z,6.33
2022-08-26T19:06:20.189Z,6.00
2022-08-26T19:08:49.696Z,6.15
2022-08-26T19:11:18.561Z,6.20
2022-08-26T19:14:01.126Z,6.57
2022-08-26T19:16:29.049Z,6.55
2022-08-26T19:18:56.514Z,6.80
2022-08-26T19:21:39.363Z,6.25
2022-08-26T19:24:12.239Z,6.22
2022-08-26T19:26:39.547Z,6.35
2022-08-26T19:29:06.767Z,5.90
2022-08-26T19:31:33.734Z,5.50
2022-08-26T19:34:01.018Z,5.30
2022-08-26T19:36:28.494Z,6.57
2022-08-26T19:38:56.689Z,6.97
2022-08-26T19:41:31.660Z,6.53
2022-08-26T19:44:09.775Z,6.90
2022-08-26T19:49:08.851Z,6.30
2022-08-26T19:51:36.468Z,6.38
2022-08-26T19:54:04.271Z,5.97
2022-08-26T19:56:31.234Z,7.10
2022-08-26T19:58:58.340Z,11.27
2022-08-26T20:01:25.639Z,7.47
2022-08-26T20:03:53.185Z,7.65
2022-08-26T20:06:20.414Z,8.48
2022-08-26T20:08:47.898Z,8.02
2022-08-26T20:11:18.761Z,9.23
2022-08-26T20:13:47.536Z,8.65
2022-08-26T20:16:16.169Z,9.43
2022-08-26T20:19:03.067Z,9.52
2022-08-26T20:21:33.231Z,9.82
2022-08-26T20:24:01.267Z,9.95
2022-08-26T20:26:29.894Z,9.50
2022-08-26T20:28:56.805Z,10.90
2022-08-26T20:31:24.237Z,10.45
2022-08-26T20:33:51.681Z,8.77
2022-08-26T20:36:20.439Z,9.13
2022-08-26T20:38:48.483Z,11.70
2022-08-26T20:41:15.355Z,13.35
2022-08-26T20:43:44.769Z,12.02
2022-08-26T20:46:18.141Z,15.05
2022-08-26T20:48:47.891Z,7.40
2022-08-26T20:51:15.772Z,10.50
2022-08-26T20:53:44.249Z,12.55
2022-08-26T20:56:12.730Z,8.45
2022-08-26T20:58:40.992Z,10.00
2022-08-26T21:01:09.267Z,8.20
2022-08-26T21:03:36.692Z,11.05
2022-08-26T21:06:03.903Z,9.77
2022-08-26T21:08:33.184Z,8.30
2022-08-26T21:11:01.984Z,11.02
2022-08-26T21:13:42.872Z,8.02
2022-08-26T21:16:19.456Z,6.75
2022-08-26T21:18:46.933Z,6.05
2022-08-26T21:21:16.305Z,6.10
2022-08-26T21:23:43.152Z,5.80
2022-08-26T21:26:11.981Z,6.65
2022-08-26T21:28:40.566Z,6.78
2022-08-26T21:31:10.659Z,14.10
2022-08-26T21:33:38.370Z,6.88
2022-08-26T21:36:09.387Z,13.15
2022-08-26T21:38:36.940Z,8.65
2022-08-26T21:41:07.539Z,11.20
2022-08-26T21:43:35.795Z,7.07
2022-08-26T21:46:12.526Z,7.05
2022-08-26T21:48:50.506Z,6.55
2022-08-26T21:51:20.345Z,7.53
2022-08-26T21:53:47.821Z,6.70
2022-08-26T21:56:18.025Z,6.85
2022-08-26T21:58:45.587Z,5.25
2022-08-26T22:01:16.098Z,4.63
2022-08-26T22:03:47.552Z,4.95
2022-08-26T22:06:19.891Z,4.40
2022-08-26T22:08:46.965Z,4.32
2022-08-26T22:11:15.662Z,4.13
2022-08-26T22:13:43.305Z,3.85
2022-08-26T22:16:11.293Z,4.30
2022-08-26T22:18:39.005Z,3.92
2022-08-26T22:21:09.737Z,4.13
2022-08-26T22:23:38.000Z,4.30
2022-08-26T22:26:09.114Z,4.78
2022-08-26T22:28:36.602Z,3.95
2022-08-26T22:31:03.489Z,4.25
2022-08-26T22:33:30.363Z,3.70
2022-08-26T22:35:57.674Z,3.72
2022-08-26T22:38:24.889Z,3.90
2022-08-26T22:40:56.055Z,4.00
2022-08-26T22:43:24.497Z,3.97
2022-08-26T22:45:53.112Z,3.70
2022-08-26T22:48:22.754Z,4.47
2022-08-26T22:50:51.013Z,3.55
2022-08-26T22:53:18.417Z,3.97
2022-08-26T22:55:45.916Z,3.55
2022-08-26T22:58:14.742Z,3.90
2022-08-26T23:00:43.048Z,3.75
2022-08-26T23:03:11.592Z,4.13
2022-08-26T23:05:39.650Z,3.95
2022-08-26T23:08:08.932Z,4.53
2022-08-26T23:10:37.093Z,3.97
2022-08-26T23:13:05.506Z,3.83
2022-08-26T23:15:32.988Z,4.25
2022-08-26T23:18:00.092Z,3.78
2022-08-26T23:20:27.973Z,3.95
2022-08-26T23:22:55.938Z,4.38
2022-08-26T23:25:23.145Z,4.30
2022-08-26T23:27:51.962Z,3.75
2022-08-26T23:30:21.936Z,3.88
2022-08-26T23:32:48.907Z,4.93
2022-08-26T23:35:20.830Z,3.97
2022-08-26T23:40:25.811Z,4.43
2022-08-26T23:42:54.222Z,4.28
2022-08-26T23:45:22.510Z,4.25
2022-08-26T23:47:50.611Z,5.50
2022-08-26T23:50:19.606Z,5.25
2022-08-26T23:53:05.209Z,5.15
2022-08-26T23:55:36.699Z,5.35
2022-08-26T23:58:04.201Z,5.13
